DECPP EDDN-

Flight info

Callsign DECPP
Flight time N/A
Altitude
Route
Aircraft AD450

Departure

Time 2026-04-27 11:23
Airport Nuremberg Airport (EDDN)

Arrival

Time N/A
Airport -
Time Latitude Longitude Altitude Speed Heading
2026-04-27 11:15 49.49452 11.06885 1017 ft 0 kts 277°
2026-04-27 11:18 49.49471 11.06895 1018 ft 11 kts 38°
2026-04-27 11:18 49.49524 11.06962 1018 ft 11 kts 97°
2026-04-27 11:18 49.49508 11.07125 1018 ft 12 kts 96°
2026-04-27 11:19 49.49550 11.07201 1019 ft 14 kts
2026-04-27 11:19 49.49637 11.07234 1019 ft 10 kts 74°
2026-04-27 11:19 49.49626 11.07349 1020 ft 12 kts 101°
2026-04-27 11:19 49.49613 11.07484 1021 ft 13 kts 97°
2026-04-27 11:20 49.49599 11.07627 1022 ft 14 kts 97°
2026-04-27 11:20 49.49585 11.07775 1022 ft 14 kts 101°
2026-04-27 11:20 49.49568 11.07960 1023 ft 18 kts 99°
2026-04-27 11:20 49.49556 11.08135 1023 ft 15 kts 107°
2026-04-27 11:21 49.49535 11.08268 1024 ft 19 kts 98°
2026-04-27 11:21 49.49615 11.08437 1024 ft 14 kts 99°
2026-04-27 11:21 49.49593 11.08658 1027 ft 20 kts 98°
2026-04-27 11:21 49.49579 11.08797 1028 ft 18 kts 98°
2026-04-27 11:22 49.49563 11.08970 1030 ft 15 kts 99°
2026-04-27 11:22 49.49547 11.09127 1031 ft 16 kts 99°
2026-04-27 11:22 49.49530 11.09318 1034 ft 17 kts 91°
2026-04-27 11:22 49.49590 11.09481 1035 ft 20 kts 52°
2026-04-27 11:23 49.49692 11.09488 1036 ft 18 kts 302°
2026-04-27 11:23 49.49763 11.08910 1133 ft 127 kts 277°
2026-04-27 11:23 49.49981 11.07155 1432 ft 192 kts 282°
2026-04-27 11:23 49.49463 11.06068 1948 ft 199 kts 185°
2026-04-27 11:24 49.48687 11.06101 1834 ft 203 kts 179°
2026-04-27 11:24 49.48331 11.07423 2040 ft 209 kts 95°
2026-04-27 11:24 49.48256 11.08539 2147 ft 194 kts 97°
2026-04-27 11:24 49.48123 11.10738 2237 ft 218 kts 91°
2026-04-27 11:25 49.48010 11.13142 2353 ft 231 kts 99°
2026-04-27 11:25 49.48384 11.14940 2315 ft 233 kts
2026-04-27 11:25 49.49248 11.14097 2196 ft 135 kts 278°
2026-04-27 11:25 49.49343 11.12977 1843 ft 98 kts 281°
2026-04-27 11:26 49.49437 11.12146 1546 ft 69 kts 281°
2026-04-27 11:26 49.49510 11.11395 1325 ft 64 kts 280°
2026-04-27 11:26 49.49583 11.10651 1195 ft 77 kts 281°
2026-04-27 11:26 49.49662 11.09866 1085 ft 75 kts 282°
2026-04-27 11:27 49.49738 11.09156 1048 ft 71 kts 285°
2026-04-27 11:27 49.49899 11.07660 1042 ft 188 kts 280°
2026-04-27 11:27 49.50387 11.06114 1458 ft 183 kts
2026-04-27 11:27 49.51469 11.06081 2345 ft 89 kts 359°